Time;durP1;ratioP1;P1;durP2;ratioP2;P2;SDS_P1;SDS_P2;PMS_P1;PMS_P2;Temp;Humidity;BMP_temperature;BMP_pressure;BME280_temperature;BME280_humidity;BME280_pressure;Samples;Min_cycle;Max_cycle;Signal;HPM_P1;HPM_P2
2022/07/12 00:00:21;;;;;;;4.35;0.90;;;;;;;20.85;56.29;99094.08;1729413;81;21403;-62
2022/07/12 00:02:48;;;;;;;2.62;0.88;;;;;;;20.93;56.19;99092.85;1743544;80;22204;-62
2022/07/12 00:05:14;;;;;;;2.67;0.90;;;;;;;20.99;56.14;99084.25;1683552;83;21555;-62
2022/07/12 00:07:41;;;;;;;4.12;0.90;;;;;;;20.95;56.09;99086.86;1678788;83;21497;-62
2022/07/12 00:10:09;;;;;;;1.67;0.90;;;;;;;20.95;55.93;99090.04;1668780;83;21554;-62
2022/07/12 00:12:35;;;;;;;0.93;0.70;;;;;;;20.90;56.01;99083.78;1676570;83;21506;-62
2022/07/12 00:15:03;;;;;;;1.55;0.75;;;;;;;20.76;56.30;99082.92;1709269;82;21828;-62
2022/07/12 00:17:31;;;;;;;3.30;1.02;;;;;;;20.52;57.04;99084.69;1672224;83;21570;-62
2022/07/12 00:19:57;;;;;;;1.27;0.60;;;;;;;20.63;56.73;99086.40;1741069;80;21095;-62
2022/07/12 00:22:24;;;;;;;2.62;1.00;;;;;;;20.57;56.95;99089.12;1734916;80;21630;-62
2022/07/12 00:24:51;;;;;;;3.83;1.00;;;;;;;20.62;56.82;99084.20;1747566;80;21407;-61
2022/07/12 00:27:18;;;;;;;2.10;0.72;;;;;;;20.58;56.86;99089.45;1745002;80;21759;-62
2022/07/12 00:29:45;;;;;;;1.27;0.80;;;;;;;20.52;56.97;99086.03;1738843;82;21007;-62
2022/07/12 00:32:13;;;;;;;3.52;0.80;;;;;;;20.46;56.99;99083.94;1750606;80;21534;-62
2022/07/12 00:34:39;;;;;;;3.35;0.80;;;;;;;20.50;56.94;99079.48;1760054;80;21439;-62
2022/07/12 00:37:06;;;;;;;3.23;0.90;;;;;;;20.52;56.83;99077.52;1759990;80;20986;-62
2022/07/12 00:39:33;;;;;;;4.90;0.93;;;;;;;20.48;57.02;99080.63;1717355;82;22098;-62
2022/07/12 00:42:00;;;;;;;6.87;1.52;;;;;;;20.51;56.99;99073.64;1757815;80;21597;-62
2022/07/12 00:44:26;;;;;;;2.15;0.88;;;;;;;20.47;56.89;99082.43;1751463;80;21679;-61
2022/07/12 00:46:53;;;;;;;3.50;0.80;;;;;;;20.54;56.80;99080.88;1726824;82;21499;-61
2022/07/12 00:49:19;;;;;;;5.78;1.17;;;;;;;20.54;56.70;99088.06;1764456;80;21463;-61
2022/07/12 00:51:46;;;;;;;3.75;0.80;;;;;;;20.46;56.87;99090.11;1762634;80;21960;-61
2022/07/12 00:54:13;;;;;;;3.58;0.57;;;;;;;20.46;56.97;99089.27;1768263;80;21550;-61
2022/07/12 00:56:40;;;;;;;1.77;0.70;;;;;;;20.41;57.09;99090.52;1736583;80;21447;-61
2022/07/12 00:59:06;;;;;;;1.32;0.90;;;;;;;20.34;57.18;99097.91;1748697;80;21562;-61
2022/07/12 01:01:34;;;;;;;2.35;0.60;;;;;;;20.28;57.27;99105.15;1760194;80;21412;-61
2022/07/12 01:04:01;;;;;;;2.67;0.82;;;;;;;20.28;57.26;99103.31;1769055;80;21939;-61
2022/07/12 01:06:28;;;;;;;0.90;0.67;;;;;;;20.27;57.22;99100.31;1759209;80;21107;-61
2022/07/12 01:08:58;;;;;;;3.70;0.80;;;;;;;20.28;57.26;99099.81;1758428;80;21594;-61
2022/07/12 01:11:26;;;;;;;0.70;0.60;;;;;;;20.27;57.02;99096.31;1760022;80;21558;-61
2022/07/12 01:13:53;;;;;;;0.98;0.80;;;;;;;20.16;57.18;99093.78;1770158;80;21435;-61
2022/07/12 01:16:20;;;;;;;3.43;0.70;;;;;;;20.19;57.07;99093.01;1758492;80;21783;-62
2022/07/12 01:18:47;;;;;;;3.33;0.80;;;;;;;20.12;56.91;99097.22;1761531;80;21467;-61
2022/07/12 01:21:18;;;;;;;6.42;0.90;;;;;;;20.02;57.01;99085.67;1758009;80;21500;-61
2022/07/12 01:23:46;;;;;;;0.82;0.68;;;;;;;20.03;56.92;99087.37;1765674;80;21061;-61
2022/07/12 01:26:12;;;;;;;2.52;0.82;;;;;;;20.01;56.88;99088.84;1762250;80;24383;-62
2022/07/12 01:28:39;;;;;;;5.28;1.00;;;;;;;20.01;56.82;99084.84;1759406;80;21766;-61
2022/07/12 01:31:06;;;;;;;7.92;1.10;;;;;;;19.99;56.67;99083.30;1715681;82;21661;-61
2022/07/12 01:33:33;;;;;;;5.12;1.10;;;;;;;19.90;56.81;99083.64;1708568;83;21037;-62
2022/07/12 01:36:00;;;;;;;;;;;;;;;19.88;56.57;99083.44;1706181;82;21597;-61
2022/07/12 01:38:27;;;;;;;4.70;0.72;;;;;;;19.78;56.58;99081.59;1715916;82;20520;-61
2022/07/12 01:40:53;;;;;;;3.58;0.98;;;;;;;19.91;56.40;99081.80;1692143;83;21847;-61
2022/07/12 01:43:21;;;;;;;3.25;0.88;;;;;;;19.87;56.34;99077.73;1707672;83;21524;-61
2022/07/12 01:45:48;;;;;;;3.10;0.80;;;;;;;19.77;56.46;99081.23;1712205;82;20985;-61
2022/07/12 01:48:14;;;;;;;2.77;0.85;;;;;;;19.76;56.57;99074.23;1696671;83;21472;-61
2022/07/12 01:50:42;;;;;;;1.37;0.80;;;;;;;19.79;56.33;99080.59;1712524;82;20994;-61
2022/07/12 01:53:10;;;;;;;1.35;1.02;;;;;;;19.89;56.12;99081.97;1688846;83;21763;-61
2022/07/12 01:55:38;;;;;;;2.45;0.75;;;;;;;19.73;56.31;99087.83;1727559;82;21523;-61
2022/07/12 01:58:04;;;;;;;2.10;0.75;;;;;;;19.70;56.36;99088.55;1705489;82;21563;-61
2022/07/12 02:00:32;;;;;;;3.33;0.80;;;;;;;19.69;56.32;99090.39;1708691;82;21475;-61
2022/07/12 02:02:59;;;;;;;2.85;0.90;;;;;;;19.66;56.25;99087.98;1695425;83;21026;-61
2022/07/12 02:05:26;;;;;;;6.80;1.05;;;;;;;19.70;56.11;99093.39;1694218;83;22129;-61
2022/07/12 02:07:53;;;;;;;13.75;1.52;;;;;;;19.64;55.99;99091.28;1707571;82;21531;-61
2022/07/12 02:10:19;;;;;;;5.28;1.10;;;;;;;19.65;55.92;99099.65;1709361;83;21706;-61
2022/07/12 02:12:47;;;;;;;1.90;0.68;;;;;;;19.63;55.99;99086.45;1706459;83;21061;-61
2022/07/12 02:15:13;;;;;;;1.70;0.80;;;;;;;19.61;55.88;99092.91;1737258;82;21432;-61
2022/07/12 02:17:42;;;;;;;5.42;1.02;;;;;;;19.55;56.05;99096.97;1725065;82;22679;-62
2022/07/12 02:20:12;;;;;;;2.17;0.85;;;;;;;19.57;55.83;99103.47;1729179;82;21612;-62
2022/07/12 02:22:39;;;;;;;1.52;0.80;;;;;;;19.57;55.82;99100.80;1735709;82;21562;-61
2022/07/12 02:25:07;;;;;;;2.27;0.70;;;;;;;19.52;55.88;99103.89;1710848;83;21638;-62
2022/07/12 02:27:34;;;;;;;0.95;0.68;;;;;;;19.47;56.04;99103.94;1708561;82;21572;-61
2022/07/12 02:30:01;;;;;;;3.25;1.00;;;;;;;19.49;55.95;99103.31;1704336;83;22004;-62
2022/07/12 02:32:28;;;;;;;1.62;0.80;;;;;;;19.47;55.99;99105.28;1713705;82;21541;-62
2022/07/12 02:34:55;;;;;;;3.22;1.02;;;;;;;19.49;55.88;99112.65;1754354;80;21546;-62
2022/07/12 02:37:21;;;;;;;2.08;0.80;;;;;;;19.41;56.02;99117.33;1752428;80;21418;-62
2022/07/12 02:39:48;;;;;;;2.20;0.60;;;;;;;19.41;55.85;99116.83;1750237;80;21586;-62
2022/07/12 02:42:15;;;;;;;5.15;1.12;;;;;;;19.39;55.88;99118.78;1754760;80;21819;-62
2022/07/12 02:44:42;;;;;;;3.00;0.80;;;;;;;19.42;55.76;99125.66;1760071;80;21018;-62
2022/07/12 02:47:08;;;;;;;4.53;1.00;;;;;;;19.42;55.79;99127.86;1745962;80;21627;-62
2022/07/12 02:49:35;;;;;;;2.12;0.80;;;;;;;19.36;55.77;99123.04;1743952;80;21641;-61
2022/07/12 02:52:04;;;;;;;2.90;0.80;;;;;;;19.41;55.61;99127.98;1743128;80;21400;-62
2022/07/12 02:54:31;;;;;;;;;;;;;;;19.41;55.66;99130.16;1748560;80;21869;-62
2022/07/12 02:56:57;;;;;;;2.10;0.90;;;;;;;19.40;55.44;99131.15;1756887;80;20413;-62
2022/07/12 02:59:24;;;;;;;0.72;0.70;;;;;;;19.37;55.39;99130.57;1749802;80;21468;-62
2022/07/12 03:01:52;;;;;;;5.05;0.90;;;;;;;19.30;55.49;99132.91;1690053;84;21440;-61
2022/07/12 03:04:18;;;;;;;5.33;1.00;;;;;;;19.20;55.96;99127.55;1756618;80;21472;-62
2022/07/12 03:06:45;;;;;;;2.33;0.98;;;;;;;19.30;55.76;99124.08;1720512;82;22106;-61
2022/07/12 03:09:13;;;;;;;1.60;0.72;;;;;;;19.26;55.78;99132.33;1723367;82;21576;-61
2022/07/12 03:11:39;;;;;;;5.00;1.00;;;;;;;19.32;55.73;99130.13;1750845;80;21120;-61
2022/07/12 03:14:07;;;;;;;4.92;0.90;;;;;;;19.31;55.93;99130.62;1712700;82;21507;-61
2022/07/12 03:16:34;;;;;;;2.50;0.82;;;;;;;19.35;55.75;99132.03;1752303;80;21424;-61
2022/07/12 03:19:01;;;;;;;2.10;1.00;;;;;;;19.34;55.84;99133.00;1713563;82;21769;-61
2022/07/12 03:21:28;;;;;;;5.17;1.10;;;;;;;19.32;56.19;99134.13;1679646;83;21594;-61
2022/07/12 03:23:54;;;;;;;2.02;1.10;;;;;;;19.33;56.04;99128.66;1715201;82;20999;-61
2022/07/12 03:26:21;;;;;;;4.28;1.00;;;;;;;19.37;55.88;99131.91;1752502;80;21440;-61
2022/07/12 03:28:49;;;;;;;4.17;1.22;;;;;;;19.26;55.98;99132.83;1747710;80;21432;-62
2022/07/12 03:31:17;;;;;;;2.40;1.00;;;;;;;19.37;55.68;99130.07;1753761;80;21812;-62
2022/07/12 03:33:43;;;;;;;3.67;0.98;;;;;;;19.37;55.55;99127.41;1745575;80;21068;-61
2022/07/12 03:36:10;;;;;;;2.10;0.80;;;;;;;19.38;55.34;99129.58;1743200;80;21521;-62
2022/07/12 03:38:39;;;;;;;4.53;1.37;;;;;;;19.44;55.42;99128.56;1750287;80;21522;-64
2022/07/12 03:41:07;;;;;;;5.45;0.98;;;;;;;19.53;55.29;99124.72;1756212;80;21541;-61
2022/07/12 03:43:33;;;;;;;3.30;1.00;;;;;;;19.55;55.04;99126.76;1741065;80;21849;-61
2022/07/12 03:46:00;;;;;;;2.62;1.02;;;;;;;19.57;55.13;99131.00;1758123;80;21463;-62
2022/07/12 03:48:26;;;;;;;3.87;0.80;;;;;;;19.63;54.91;99127.78;1758189;80;21046;-61
2022/07/12 03:50:53;;;;;;;2.27;1.00;;;;;;;19.65;54.94;99131.65;1749770;80;21002;-62
2022/07/12 03:53:20;;;;;;;1.07;0.80;;;;;;;19.68;54.92;99131.86;1754352;80;21653;-62
2022/07/12 03:55:47;;;;;;;0.80;0.80;;;;;;;19.70;54.53;99127.23;1749318;80;21787;-62
2022/07/12 03:58:14;;;;;;;1.57;0.90;;;;;;;19.75;54.53;99125.87;1756252;80;21601;-63
2022/07/12 04:00:42;;;;;;;2.98;1.17;;;;;;;19.79;54.42;99121.11;1743948;80;21018;-63
2022/07/12 04:03:10;;;;;;;0.78;0.78;;;;;;;19.91;54.09;99121.36;1744997;80;27090;-61
2022/07/12 04:05:37;;;;;;;;;;;;;;;19.89;54.05;99113.98;1745997;80;21470;-60
2022/07/12 04:08:05;;;;;;;3.70;0.90;;;;;;;19.99;53.90;99120.66;1755842;80;20788;-60
2022/07/12 04:10:32;;;;;;;6.03;0.90;;;;;;;20.03;54.03;99127.40;1753628;80;21049;-60
2022/07/12 04:12:59;;;;;;;2.67;1.30;;;;;;;20.10;54.23;99126.34;1758810;80;20994;-61
2022/07/12 04:15:25;;;;;;;2.47;0.93;;;;;;;20.05;54.08;99126.77;1751642;80;21467;-60
2022/07/12 04:17:52;;;;;;;1.37;0.90;;;;;;;20.16;53.92;99131.97;1753832;80;21591;-60
2022/07/12 04:20:19;;;;;;;2.62;0.88;;;;;;;20.07;54.10;99134.14;1747634;80;21880;-60
2022/07/12 04:22:46;;;;;;;1.20;1.00;;;;;;;20.12;53.77;99133.24;1719956;82;21566;-61
2022/07/12 04:25:13;;;;;;;3.93;0.90;;;;;;;20.20;54.10;99137.88;1744926;80;21441;-61
2022/07/12 04:27:40;;;;;;;2.20;1.02;;;;;;;20.14;53.88;99149.13;1722062;82;21651;-63
2022/07/12 04:30:08;;;;;;;1.65;1.32;;;;;;;20.18;53.75;99147.36;1757354;80;21499;-62
2022/07/12 04:32:36;;;;;;;1.27;0.85;;;;;;;20.20;53.42;99140.55;1752464;80;21824;-63
2022/07/12 04:35:04;;;;;;;4.80;0.93;;;;;;;20.26;53.47;99147.16;1754410;80;21451;-62
2022/07/12 04:37:30;;;;;;;2.98;0.90;;;;;;;20.20;53.66;99136.05;1754299;80;21497;-62
2022/07/12 04:39:59;;;;;;;2.37;0.98;;;;;;;20.26;53.36;99147.16;1754677;80;21487;-63
2022/07/12 04:42:25;;;;;;;0.98;0.80;;;;;;;20.33;53.45;99145.62;1758992;80;21419;-63
2022/07/12 04:44:53;;;;;;;4.37;1.00;;;;;;;20.42;53.74;99150.95;1762417;80;21818;-63
2022/07/12 04:47:20;;;;;;;3.30;0.95;;;;;;;20.42;53.56;99156.30;1753912;80;21778;-63
2022/07/12 04:49:47;;;;;;;1.33;0.93;;;;;;;20.45;53.35;99156.50;1752950;80;21651;-63
2022/07/12 04:52:13;;;;;;;3.55;1.32;;;;;;;20.55;53.36;99152.02;1753401;80;21436;-62
2022/07/12 04:54:41;;;;;;;1.37;1.00;;;;;;;20.64;53.10;99162.34;1760483;80;27385;-62
2022/07/12 04:57:07;;;;;;;3.22;0.82;;;;;;;20.60;52.97;99158.28;1760784;80;21632;-64
2022/07/12 04:59:34;;;;;;;3.37;1.32;;;;;;;20.66;52.58;99156.88;1755188;80;20952;-63
2022/07/12 05:02:02;;;;;;;1.43;1.10;;;;;;;20.60;52.39;99160.95;1757688;80;21562;-62
2022/07/12 05:04:33;;;;;;;;;;;;;;;20.70;52.26;99155.59;1760814;80;21108;-62
2022/07/12 05:07:01;;;;;;;2.25;1.02;;;;;;;20.80;52.21;99162.63;1761950;80;20417;-64
2022/07/12 05:09:27;;;;;;;3.45;1.12;;;;;;;20.86;52.22;99161.70;1751490;80;21784;-63
2022/07/12 05:11:55;;;;;;;0.85;0.72;;;;;;;21.00;52.33;99168.78;1754161;80;21522;-61
2022/07/12 05:14:21;;;;;;;3.02;1.17;;;;;;;21.09;52.10;99171.06;1758578;80;21883;-60
2022/07/12 05:16:49;;;;;;;1.27;1.17;;;;;;;21.16;51.80;99170.84;1759071;80;21483;-63
2022/07/12 05:19:17;;;;;;;0.82;0.75;;;;;;;21.25;51.81;99177.63;1756456;80;21478;-64
2022/07/12 05:21:44;;;;;;;1.80;1.00;;;;;;;21.17;51.53;99173.88;1750855;80;21781;-62
2022/07/12 05:24:11;;;;;;;;;;;;;;;21.32;52.24;99178.27;1750414;80;21565;-63
2022/07/12 05:26:38;;;;;;;3.42;1.05;;;;;;;21.46;51.86;99176.14;1762087;80;20149;-61
2022/07/12 05:29:05;;;;;;;1.17;1.02;;;;;;;21.49;51.46;99177.16;1748675;80;21451;-63
2022/07/12 05:31:31;;;;;;;2.83;1.02;;;;;;;21.45;50.82;99181.12;1726768;82;21562;-62
2022/07/12 05:33:58;;;;;;;6.35;1.00;;;;;;;21.47;51.07;99183.16;1746227;80;21794;-60
2022/07/12 05:36:25;;;;;;;0.90;0.78;;;;;;;21.45;50.46;99185.14;1705377;82;21164;-59
2022/07/12 05:38:52;;;;;;;2.92;1.32;;;;;;;21.37;50.25;99181.33;1745524;80;21428;-60
2022/07/12 05:41:19;;;;;;;1.10;0.80;;;;;;;21.42;50.22;99185.39;1743676;80;21476;-60
2022/07/12 05:43:45;;;;;;;1.60;0.88;;;;;;;21.45;50.15;99178.45;1744991;80;21630;-59
2022/07/12 05:46:12;;;;;;;2.67;0.70;;;;;;;21.52;50.33;99188.92;1719569;82;21718;-63
2022/07/12 05:48:40;;;;;;;2.98;1.05;;;;;;;21.48;50.01;99182.19;1755799;80;21416;-60
2022/07/12 05:53:51;;;;;;;1.05;0.98;;;;;;;21.59;49.73;99186.02;1755156;80;21451;-61
2022/07/12 05:56:18;;;;;;;3.17;1.12;;;;;;;21.64;49.93;99190.40;1750909;80;21553;-60
2022/07/12 05:58:45;;;;;;;4.90;1.20;;;;;;;21.66;49.83;99193.80;1753140;80;21879;-63
2022/07/12 06:01:11;;;;;;;2.15;0.93;;;;;;;21.76;50.35;99193.24;1744247;80;21582;-62
2022/07/12 06:03:38;;;;;;;2.77;0.90;;;;;;;21.91;49.98;99196.27;1748358;80;21436;-63
2022/07/12 06:06:05;;;;;;;2.37;1.00;;;;;;;22.10;49.39;99197.98;1740254;80;21463;-63
2022/07/12 06:08:32;;;;;;;;;;;;;;;22.20;49.39;99199.26;1753365;80;21499;-63
2022/07/12 06:10:59;;;;;;;2.92;0.82;;;;;;;22.27;48.83;99194.19;1746056;80;21905;-59
2022/07/12 06:13:26;;;;;;;1.10;0.80;;;;;;;22.31;48.86;99195.06;1746837;80;21519;-61
2022/07/12 06:15:53;;;;;;;1.13;0.80;;;;;;;22.38;48.51;99195.30;1738568;80;21511;-60
2022/07/12 06:18:19;;;;;;;0.80;0.80;;;;;;;22.42;48.61;99199.36;1740948;80;21514;-61
2022/07/12 06:20:46;;;;;;;2.52;0.70;;;;;;;22.46;48.58;99190.02;1750740;80;21037;-60
2022/07/12 06:23:14;;;;;;;2.47;0.65;;;;;;;22.69;48.50;99193.57;1715850;82;21393;-61
2022/07/12 06:25:42;;;;;;;1.72;1.20;;;;;;;22.73;48.04;99197.62;1756150;80;21384;-61
2022/07/12 06:28:09;;;;;;;0.80;0.80;;;;;;;22.69;48.02;99193.57;1740294;80;21588;-61
2022/07/12 06:30:36;;;;;;;3.02;0.90;;;;;;;22.82;47.73;99198.03;1756929;80;21443;-61
2022/07/12 06:33:03;;;;;;;1.05;0.70;;;;;;;22.91;48.03;99209.67;1758081;80;21492;-61
2022/07/12 06:35:30;;;;;;;1.03;0.70;;;;;;;22.99;47.51;99203.53;1749537;80;21886;-60
2022/07/12 06:37:57;;;;;;;1.90;0.90;;;;;;;23.14;46.82;99214.05;1741977;80;21613;-60
2022/07/12 06:40:23;;;;;;;0.70;0.70;;;;;;;23.14;46.82;99214.05;1746043;80;21499;-60
2022/07/12 06:42:50;;;;;;;1.85;0.90;;;;;;;23.12;45.94;99205.33;1749974;80;21559;-61
2022/07/12 06:45:17;;;;;;;4.28;0.70;;;;;;;23.21;46.80;99208.41;1744461;80;21592;-60
2022/07/12 06:47:44;;;;;;;0.60;0.60;;;;;;;23.36;46.67;99211.84;1749022;80;21816;-61
2022/07/12 06:50:13;;;;;;;1.67;0.60;;;;;;;23.39;46.00;99212.36;1747527;80;21475;-61
2022/07/12 06:52:40;;;;;;;2.17;0.53;;;;;;;23.38;45.41;99220.59;1740003;80;21460;-62
2022/07/12 06:55:08;;;;;;;0.97;0.67;;;;;;;23.25;45.57;99207.60;1748771;80;21467;-62
2022/07/12 06:57:37;;;;;;;1.27;0.80;;;;;;;23.37;45.72;99210.85;1748156;80;21574;-62
2022/07/12 07:00:05;;;;;;;;;;;;;;;23.44;46.24;99210.05;1752603;80;21454;-61
2022/07/12 07:02:32;;;;;;;2.17;0.47;;;;;;;23.61;45.75;99218.20;1739035;80;20502;-61
2022/07/12 07:04:59;;;;;;;1.20;0.60;;;;;;;23.66;44.42;99218.58;1718910;82;21503;-62
2022/07/12 07:07:26;;;;;;;3.08;0.88;;;;;;;23.74;44.66;99221.80;1745287;80;21561;-61
2022/07/12 07:09:53;;;;;;;;;;;;;;;23.82;45.15;99217.32;1744012;80;21114;-61
2022/07/12 07:12:21;;;;;;;4.78;0.78;;;;;;;23.88;45.68;99223.41;1746882;80;22107;-61
2022/07/12 07:14:48;;;;;;;2.33;0.72;;;;;;;23.80;44.77;99231.91;1696174;82;21522;-62
2022/07/12 07:17:19;;;;;;;;;;;;;;;23.89;44.02;99215.67;1741373;80;21538;-63
2022/07/12 07:19:46;;;;;;;1.25;0.57;;;;;;;24.00;43.60;99217.75;1742371;80;20476;-61
2022/07/12 07:22:13;;;;;;;0.78;0.55;;;;;;;24.00;43.60;99217.75;1750483;80;21391;-61
2022/07/12 07:24:40;;;;;;;2.40;0.65;;;;;;;24.12;42.69;99222.31;1738693;80;21858;-66
2022/07/12 07:27:08;;;;;;;2.87;0.57;;;;;;;24.12;42.69;99222.31;1741806;80;20955;-64
2022/07/12 07:32:19;;;;;;;3.05;0.62;;;;;;;24.13;42.51;99228.87;1744325;80;21683;-65
2022/07/12 07:34:46;;;;;;;4.95;0.90;;;;;;;24.26;41.99;99231.92;1702614;82;21549;-60
2022/07/12 07:37:13;;;;;;;1.92;0.60;;;;;;;24.36;41.92;99223.72;1745463;80;21873;-62
2022/07/12 07:39:40;;;;;;;0.95;0.68;;;;;;;24.44;42.40;99229.60;1753925;80;21404;-61
2022/07/12 07:42:07;;;;;;;0.62;0.47;;;;;;;24.49;41.93;99232.65;1715361;82;21535;-63
2022/07/12 07:44:35;;;;;;;0.60;0.55;;;;;;;24.41;41.69;99231.27;1745603;80;21610;-63
2022/07/12 07:47:03;;;;;;;3.43;0.70;;;;;;;24.54;41.42;99227.62;1716642;82;21476;-62
2022/07/12 07:49:31;;;;;;;4.40;0.60;;;;;;;24.65;41.55;99238.05;1719085;82;21511;-65
2022/07/12 07:51:58;;;;;;;2.83;0.70;;;;;;;24.64;41.52;99227.50;1746271;80;21035;-63
2022/07/12 07:54:25;;;;;;;2.30;0.53;;;;;;;24.77;41.62;99224.29;1746018;80;21447;-63
2022/07/12 07:56:52;;;;;;;2.27;0.75;;;;;;;24.91;41.74;99216.91;1751163;80;21546;-61
2022/07/12 07:59:18;;;;;;;4.37;0.75;;;;;;;25.24;41.59;99219.59;1739089;80;21463;-62
2022/07/12 08:01:45;;;;;;;0.50;0.50;;;;;;;25.27;40.96;99230.02;1724572;82;21484;-66
2022/07/12 08:04:13;;;;;;;1.37;0.72;;;;;;;25.28;41.10;99227.68;1755427;80;21005;-63
2022/07/12 08:06:40;;;;;;;1.20;0.60;;;;;;;25.41;41.29;99219.92;1751055;80;21456;-63
2022/07/12 08:09:07;;;;;;;2.17;0.60;;;;;;;25.43;41.60;99229.17;1750319;80;21613;-63
2022/07/12 08:11:35;;;;;;;0.70;0.60;;;;;;;25.27;41.32;99239.95;1754320;80;21588;-63
2022/07/12 08:14:04;;;;;;;2.87;0.70;;;;;;;24.98;41.33;99242.64;1748228;80;21787;-63
2022/07/12 08:16:31;;;;;;;1.22;0.80;;;;;;;24.83;41.51;99241.12;1742590;80;21049;-64
2022/07/12 08:18:58;;;;;;;2.17;1.92;;;;;;;24.74;41.90;99243.46;1754194;80;21467;-64
2022/07/12 08:21:25;;;;;;;3.60;2.00;;;;;;;24.61;42.40;99246.12;1753289;80;21504;-63
2022/07/12 08:23:51;;;;;;;1.52;1.07;;;;;;;24.53;43.54;99246.63;1749013;80;21490;-66
2022/07/12 08:26:18;;;;;;;4.42;1.00;;;;;;;24.40;44.86;99257.30;1755370;80;21829;-65
2022/07/12 08:28:45;;;;;;;1.87;1.00;;;;;;;24.22;46.88;99255.23;1748932;80;21424;-64
2022/07/12 08:31:15;;;;;;;1.82;1.05;;;;;;;24.22;46.88;99255.23;1744652;80;21510;-65
2022/07/12 08:33:41;;;;;;;3.33;1.20;;;;;;;24.34;47.07;99255.79;1748471;80;21506;-64
2022/07/12 08:36:09;;;;;;;3.00;1.00;;;;;;;24.34;47.07;99255.79;1714203;82;22572;-64
2022/07/12 08:38:37;;;;;;;2.15;1.00;;;;;;;24.37;47.96;99258.12;1752184;80;21867;-64
2022/07/12 08:41:06;;;;;;;6.03;0.82;;;;;;;24.27;48.37;99257.77;1755015;80;21474;-65
2022/07/12 08:43:36;;;;;;;2.10;0.90;;;;;;;24.32;47.42;99251.92;1755379;80;21038;-65
2022/07/12 08:46:09;;;;;;;1.32;0.72;;;;;;;24.61;46.96;99250.15;1762897;80;21531;-63
2022/07/12 08:48:36;;;;;;;3.87;0.93;;;;;;;24.61;46.96;99250.15;1752561;80;21084;-63
2022/07/12 08:51:08;;;;;;;1.42;0.80;;;;;;;24.89;46.28;99244.47;1754761;80;21835;-63
2022/07/12 08:53:35;;;;;;;1.50;0.80;;;;;;;25.18;45.72;99238.56;1757090;80;21431;-61
2022/07/12 08:56:03;;;;;;;2.87;0.80;;;;;;;25.18;45.72;99238.56;1716355;82;21563;-63
2022/07/12 08:58:30;;;;;;;5.12;1.20;;;;;;;25.24;43.52;99236.59;1749105;80;21513;-62
2022/07/12 09:00:58;;;;;;;1.40;0.80;;;;;;;25.24;43.52;99236.59;1752212;80;21570;-63
2022/07/12 09:03:24;;;;;;;3.07;0.80;;;;;;;25.43;43.60;99229.17;1756285;80;21838;-62
2022/07/12 09:05:55;;;;;;;5.65;1.00;;;;;;;25.45;43.25;99237.91;1749781;80;21050;-63
2022/07/12 09:08:34;;;;;;;1.00;0.70;;;;;;;25.57;43.14;99237.86;1755185;80;21447;-62
2022/07/12 09:11:02;;;;;;;2.95;0.70;;;;;;;25.57;43.14;99237.86;1752580;80;21444;-66
2022/07/12 09:13:53;;;;;;;1.00;0.93;;;;;;;25.68;42.41;99237.18;1758544;80;21553;-63
2022/07/12 09:16:23;;;;;;;1.15;0.72;;;;;;;25.97;42.38;99231.20;1695732;82;21778;-66
2022/07/12 09:18:50;;;;;;;2.15;1.00;;;;;;;25.97;42.38;99231.20;1762915;80;21451;-65
2022/07/12 09:21:27;;;;;;;2.37;1.10;;;;;;;25.97;42.03;99223.13;1755875;80;21464;-68
2022/07/12 09:23:58;;;;;;;2.60;0.75;;;;;;;25.96;41.04;99233.06;1752770;80;21425;-65
2022/07/12 09:26:36;;;;;;;1.00;0.60;;;;;;;25.60;40.17;99229.45;1758457;80;21447;-66
2022/07/12 09:29:09;;;;;;;1.10;0.62;;;;;;;25.60;40.17;99229.45;1757469;80;21913;-66
2022/07/12 09:37:17;;;;;;;0.65;0.62;;;;;;;25.15;41.18;99255.06;1766303;80;21581;-65
2022/07/12 09:39:44;;;;;;;0.65;0.62;;;;;;;25.06;40.92;99254.21;1754139;80;21964;-60
2022/07/12 09:42:12;;;;;;;1.60;0.57;;;;;;;24.97;40.50;99246.31;1755342;80;21942;-61
2022/07/12 09:44:39;;;;;;;1.85;0.70;;;;;;;24.89;40.92;99252.54;1719994;82;21565;-60
2022/07/12 09:47:13;;;;;;;;;;;;;;;24.89;40.92;99252.54;1759085;80;21582;-61
2022/07/12 09:49:41;;;;;;;2.10;0.78;;;;;;;24.52;42.60;99269.12;1750315;80;20411;-61
2022/07/12 09:52:21;;;;;;;0.82;0.47;;;;;;;24.34;43.39;99284.00;1712731;82;21669;-61
2022/07/12 09:54:52;;;;;;;2.92;0.50;;;;;;;24.34;43.39;99284.00;1749598;80;21738;-61
2022/07/12 09:57:24;;;;;;;1.17;0.72;;;;;;;24.09;43.48;99284.73;1753030;80;21585;-62
2022/07/12 09:59:52;;;;;;;0.95;0.33;;;;;;;23.67;43.88;99266.70;1754073;80;21420;-60
2022/07/12 10:02:21;;;;;;;1.27;0.40;;;;;;;23.67;43.88;99266.70;1750980;80;21534;-62
2022/07/12 10:04:48;;;;;;;2.72;0.40;;;;;;;23.54;44.16;99275.67;1751165;80;21562;-59
2022/07/12 10:07:16;;;;;;;1.07;0.82;;;;;;;23.41;44.87;99279.27;1754159;80;21596;-61
2022/07/12 10:09:50;;;;;;;;;;;;;;;23.42;45.44;99275.09;1756185;80;21562;-60
2022/07/12 10:12:20;;;;;;;0.30;0.30;;;;;;;23.53;45.65;99275.34;1755761;80;20569;-61
2022/07/12 10:15:02;;;;;;;1.25;0.35;;;;;;;23.70;45.35;99274.44;1755570;80;21657;-61
2022/07/12 10:17:30;;;;;;;2.67;0.50;;;;;;;24.28;44.82;99263.48;1752966;80;21606;-60
2022/07/12 10:20:18;;;;;;;2.87;0.40;;;;;;;24.28;44.82;99263.48;1751948;80;21875;-60
2022/07/12 10:22:45;;;;;;;1.60;0.50;;;;;;;24.49;44.87;99257.66;1744566;80;21428;-59
2022/07/12 10:25:32;;;;;;;0.93;0.40;;;;;;;24.90;45.29;99252.86;1753519;80;21459;-61
2022/07/12 10:28:03;;;;;;;0.37;0.28;;;;;;;24.90;45.29;99252.86;1745296;80;21483;-61
2022/07/12 10:30:30;;;;;;;0.40;0.35;;;;;;;25.02;43.79;99249.36;1749565;80;21515;-60
2022/07/12 10:32:59;;;;;;;1.65;0.70;;;;;;;25.16;44.45;99253.20;1758105;80;22127;-61
2022/07/12 10:35:30;;;;;;;0.70;0.60;;;;;;;25.31;43.79;99253.39;1763946;80;21418;-61
2022/07/12 10:38:16;;;;;;;3.67;0.72;;;;;;;25.43;44.11;99250.70;1752328;80;21445;-63
2022/07/12 10:40:45;;;;;;;1.10;0.50;;;;;;;25.60;44.18;99243.43;1764654;80;20999;-60
2022/07/12 10:43:14;;;;;;;0.88;0.33;;;;;;;25.78;43.50;99248.58;1756800;80;21566;-62
2022/07/12 10:48:23;;;;;;;1.52;0.50;;;;;;;24.52;46.72;99253.83;1785137;78;23235;-63
2022/07/12 10:51:01;;;;;;;1.10;0.50;;;;;;;25.82;43.81;99257.98;1750842;80;21487;-63
2022/07/12 10:53:34;;;;;;;6.62;0.85;;;;;;;26.00;42.47;99255.09;1744746;80;21829;-62
2022/07/12 10:56:18;;;;;;;2.15;0.50;;;;;;;26.09;42.25;99263.48;1746813;80;21583;-60
2022/07/12 10:58:55;;;;;;;0.55;0.45;;;;;;;26.20;41.93;99264.44;1735081;80;21525;-64
2022/07/12 11:01:26;;;;;;;1.42;0.50;;;;;;;26.31;40.85;99246.19;1698046;81;21667;-67
2022/07/12 11:04:08;;;;;;;0.57;0.50;;;;;;;26.48;41.27;99256.36;1703331;82;21269;-65
2022/07/12 11:06:38;;;;;;;1.75;0.60;;;;;;;26.58;40.74;99254.30;1704327;82;21840;-63
2022/07/12 11:09:09;;;;;;;0.28;0.28;;;;;;;26.21;39.84;99219.47;1709643;82;21562;-65
2022/07/12 11:11:48;;;;;;;0.80;0.50;;;;;;;26.33;39.93;99246.84;1708102;82;21518;-68
2022/07/12 11:14:25;;;;;;;4.80;0.55;;;;;;;26.28;40.75;99258.69;1704209;82;21497;-65
2022/07/12 11:16:53;;;;;;;4.22;0.50;;;;;;;26.21;40.95;99254.50;1702813;82;21484;-65
2022/07/12 11:19:23;;;;;;;;;;;;;;;26.11;40.54;99261.97;1706462;82;21907;-62
2022/07/12 11:22:00;;;;;;;1.22;0.57;;;;;;;26.03;39.57;99251.55;1705782;82;20475;-65
2022/07/12 11:24:21;;;;;;;0.40;0.40;;;;;;;26.00;39.87;99247.02;1696934;82;21581;-66
2022/07/12 11:26:48;;;;;;;0.57;0.40;;;;;;;25.89;40.20;99248.72;1704348;82;21510;-65
2022/07/12 11:29:15;;;;;;;0.50;0.50;;;;;;;25.80;40.31;99251.93;1687659;83;21370;-66
2022/07/12 11:31:41;;;;;;;0.47;0.30;;;;;;;25.77;41.38;99249.61;1690408;83;21416;-65
2022/07/12 11:34:25;;;;;;;1.75;0.30;;;;;;;25.82;40.38;99240.48;1693625;83;21548;-66
2022/07/12 11:36:56;;;;;;;2.27;0.47;;;;;;;25.99;38.56;99231.86;1694813;83;21459;-64
2022/07/12 11:39:36;;;;;;;1.45;0.40;;;;;;;26.19;37.31;99237.16;1693837;83;21486;-65
2022/07/12 11:42:04;;;;;;;1.25;0.40;;;;;;;26.27;37.36;99236.27;1693221;83;21082;-66
2022/07/12 11:44:49;;;;;;;2.00;0.50;;;;;;;26.53;37.47;99233.25;1704220;83;21823;-66
2022/07/12 11:47:18;;;;;;;0.30;0.30;;;;;;;26.60;38.00;99226.16;1688365;84;21495;-65
2022/07/12 11:49:52;;;;;;;0.75;0.50;;;;;;;26.54;37.55;99233.59;1697889;82;21499;-65
2022/07/12 11:52:23;;;;;;;1.62;0.55;;;;;;;26.73;37.86;99235.01;1744853;80;21451;-63
2022/07/12 11:54:51;;;;;;;2.20;0.60;;;;;;;26.85;38.53;99247.55;1719809;80;21538;-66